Pagrindinis puslapis
METAR-TAF:

METAR-TAF

Oro uostai :

Jelivarė, Švedija

platuma: 67-09N, ilguma: 020-39E, Aukštis: 359 m

Dabartinis oras

Ataskaita buvo paskelbta 27 minutes, ne 11:50 UTC
Vėjas 11 kt iš Rytų/Pietryčių
Temperatūra 7°C
Drėgmė 93%
Slėgis 994 hPa
Matomumas 10 km arba daugiau
Su prošvaistėmis ne aukštis 500 ft
Su prošvaistėmis ne aukštis 900 ft
Apsiniaukę ne aukštis 1400 ft
dulksna

METAR: ESNG 231150Z 11011KT 9999 DZ BKN005 BKN009 OVC014 07/06 Q0994

Laikas: 14:17 (12:17 UTC)

Prognozė

Ataskaita buvo paskelbta 47 minutes, ne 11:30 UTC
Prognozė galioja nuo 23 metu 12 UTC su 23 metu 19 UTC
Vėjas 8 kt iš Rytų/Pietryčių
Matomumas 10 km arba daugiau
Su prošvaistėmis ne aukštis 600 ft
lietus
Laikinai
nuo 23 metu 12 UTC su 23 metu 19 UTC
Matomumas: 4000 m
Apsiniaukę ne aukštis 300 ft
lietus, rūkana

TAF: ESNG 231130Z 2312/2319 12008KT 9999 -RA BKN006 TEMPO 2312/2319 4000 RA BR OVC003

Orai ataskaitas ir orų prognozės (METAR, TAF).

turimą stotys yra geltonos ir raudonos taškus žemėlapyje.

Perkelti pele per norėdami pamatyti stoties vardą.

Tada spustelėkite, norėdami matyti oro stebėjimo ir prognozės.

Norėdami pakeisti žemėlapį: spustelėkite ant žalios mygtukų su juodo kryžiaus žemyn,; žalią mygtuką su brūkšneliu, jei norite nutolinti; arba žalių rodyklių gretimoms žemėlapius.


METAR-TAF: